This is the latest recevied weather packets stored in our database for station/object OK2ILA-6. If no packets are shown the sender has not sent any weather packets the latest 10 day(s).
| Time | Temp. | Humidity | Pressure | Rain* | Wind** | Luminosity | Snow |
|---|---|---|---|---|---|---|---|
| 1777168803 | 11.67° C | 56% | 1012.2 hPa | - | - | - | - |
| 1777168448 | 21.67° C | 56% | 1013.7 hPa | - | - | - | - |
| 1777168203 | 11.11° C | 56% | 1011.9 hPa | - | - | - | - |
| 1777167603 | 12.22° C | 54% | 1011.6 hPa | - | - | - | - |
| 1777167003 | 12.22° C | 53% | 1011.3 hPa | - | - | - | - |
| 1777166403 | 12.22° C | 52% | 1011 hPa | - | - | - | - |
| 1777165803 | 12.22° C | 52% | 1010.6 hPa | - | - | - | - |
| 1777165203 | 12.22° C | 56% | 1010.6 hPa | - | - | - | - |
| 1777164603 | 12.22° C | 56% | 1010.4 hPa | - | - | - | - |
| 1777164003 | 11.67° C | 54% | 1010.5 hPa | - | - | - | - |
| 1777163403 | 11.67° C | 55% | 1010.5 hPa | - | - | - | - |
| 1777162803 | 11.11° C | 56% | 1010.2 hPa | - | - | - | - |
| 1777162203 | 11.11° C | 59% | 1010 hPa | - | - | - | - |
| 1777161603 | 11.11° C | 58% | 1010 hPa | - | - | - | - |
| 1777161002 | 11.11° C | 55% | 1010 hPa | - | - | - | - |
| 1777160403 | 11.67° C | 55% | 1009.8 hPa | - | - | - | - |
| 1777159803 | 12.22° C | 48% | 1009.8 hPa | - | - | - | - |
| 1777159203 | 12.22° C | 48% | 1009.8 hPa | - | - | - | - |
| 1777158603 | 11.67° C | 48% | 1009.9 hPa | - | - | - | - |
| 1777158002 | 11.11° C | 50% | 1009.9 hPa | - | - | - | - |
| 1777157403 | 12.22° C | 49% | 1009.8 hPa | - | - | - | - |
| 1777156803 | 12.22° C | 48% | 1009.7 hPa | - | - | - | - |
| 1777156203 | 11.67° C | 49% | 1009.7 hPa | - | - | - | - |
| 1777155603 | 12.22° C | 50% | 1009.8 hPa | - | - | - | - |
| 1777155002 | 12.78° C | 46% | 1009.8 hPa | - | - | - | - |
* Rain since midnight (hover to see other rain measurements)
** Current wind speed in m/s (hover to see current wind gust speed)